AZA1296 LIRF-EIDW
Flight info
| Callsign | AZA1296 |
|---|---|
| Flight time | 2h 44m |
| Altitude | 36000 |
| Route | NEMBO DCT GOVGO DCT AOSTA DCT ORSUD DCT MOLUS DCT IBODI DCT GOTED DCT TRO DCT CLM DCT KOPOR DCT VESAN DCT RATUK DCT SOVAT L613 SANDY L722 ICTAM T421 DIDZA DCT CESQA DCT BIBPE DCT OKTAD DCT MEDOG DCT KRAGY DCT PEMOB M17 VATRY VATRY4L |
| Aircraft | MD82/M-SDFGIRWY/S |
Departure
| Time | 2026-05-04 06:26 |
|---|---|
| Airport | Rome–Fiumicino Leonardo da Vinci International Airport (LIRF) |
Arrival
| Time | 2026-05-04 09:10 |
|---|---|
| Airport | Dublin Airport (EIDW) |
| Time | Latitude | Longitude | Altitude | Speed | Heading |
|---|---|---|---|---|---|
| 2026-05-04 05:47 | 41.79810 | 12.24814 | 15 ft | 0 kts | 250° |
| 2026-05-04 06:05 | 41.79814 | 12.24829 | 17 ft | 4 kts | 250° |
| 2026-05-04 06:05 | 41.79824 | 12.24886 | 18 ft | 4 kts | 292° |
| 2026-05-04 06:05 | 41.79809 | 12.24906 | 19 ft | 4 kts | 338° |
| 2026-05-04 06:06 | 41.79813 | 12.24904 | 18 ft | 4 kts | 340° |
| 2026-05-04 06:06 | 41.79839 | 12.24892 | 16 ft | 4 kts | 340° |
| 2026-05-04 06:06 | 41.79864 | 12.24879 | 15 ft | 4 kts | 340° |
| 2026-05-04 06:06 | 41.79871 | 12.24876 | 16 ft | 1 kts | 340° |
| 2026-05-04 06:09 | 41.79941 | 12.24841 | 15 ft | 14 kts | 340° |
| 2026-05-04 06:09 | 41.80037 | 12.24794 | 16 ft | 15 kts | 340° |
| 2026-05-04 06:11 | 41.80323 | 12.25492 | 17 ft | 14 kts | 69° |
| 2026-05-04 06:11 | 41.80357 | 12.25614 | 16 ft | 14 kts | 70° |
| 2026-05-04 06:13 | 41.80628 | 12.26602 | 16 ft | 18 kts | 70° |
| 2026-05-04 06:14 | 41.80905 | 12.26735 | 16 ft | 47 kts | 250° |
| 2026-05-04 06:14 | 41.80743 | 12.26149 | 22 ft | 84 kts | 249° |
| 2026-05-04 06:15 | 41.80515 | 12.25318 | 17 ft | 86 kts | 249° |
| 2026-05-04 06:15 | 41.80396 | 12.24888 | 18 ft | 42 kts | 250° |
| 2026-05-04 06:15 | 41.80306 | 12.24728 | 16 ft | 17 kts | 193° |
| 2026-05-04 06:15 | 41.80218 | 12.24762 | 14 ft | 13 kts | 149° |
| 2026-05-04 06:16 | 41.80199 | 12.24851 | 14 ft | 1 kts | 78° |
| 2026-05-04 06:21 | 41.80202 | 12.24870 | 15 ft | 10 kts | 80° |
| 2026-05-04 06:21 | 41.80204 | 12.24974 | 14 ft | 11 kts | 92° |
| 2026-05-04 06:22 | 41.80210 | 12.25082 | 14 ft | 12 kts | 76° |
| 2026-05-04 06:22 | 41.80240 | 12.25192 | 14 ft | 13 kts | 70° |
| 2026-05-04 06:25 | 41.80833 | 12.26478 | 18 ft | 77 kts | 250° |
| 2026-05-04 06:25 | 41.80568 | 12.25519 | 17 ft | 141 kts | 249° |
| 2026-05-04 06:26 | 41.80172 | 12.24082 | 216 ft | 176 kts | 250° |
| 2026-05-04 06:26 | 41.79763 | 12.22568 | 1166 ft | 173 kts | 248° |
| 2026-05-04 06:26 | 41.79340 | 12.20937 | 1713 ft | 198 kts | 255° |
| 2026-05-04 06:26 | 41.79183 | 12.18998 | 2180 ft | 221 kts | 265° |
| 2026-05-04 06:27 | 41.79017 | 12.09751 | 4565 ft | 267 kts | 266° |
| 2026-05-04 06:28 | 41.79006 | 12.07259 | 5473 ft | 269 kts | 268° |
| 2026-05-04 06:28 | 41.79018 | 12.04740 | 6316 ft | 272 kts | 268° |
| 2026-05-04 06:28 | 41.79033 | 12.02181 | 7131 ft | 275 kts | 268° |
| 2026-05-04 06:28 | 41.79043 | 11.99613 | 7976 ft | 277 kts | 268° |
| 2026-05-04 06:29 | 41.79046 | 11.97024 | 8847 ft | 279 kts | 268° |
| 2026-05-04 06:29 | 41.79043 | 11.94409 | 9675 ft | 282 kts | 268° |
| 2026-05-04 06:29 | 41.79037 | 11.91765 | 10413 ft | 288 kts | 268° |
| 2026-05-04 06:29 | 41.79028 | 11.88980 | 10644 ft | 312 kts | 268° |
| 2026-05-04 06:30 | 41.79016 | 11.85962 | 10852 ft | 334 kts | 268° |
| 2026-05-04 06:30 | 41.79005 | 11.82779 | 11234 ft | 348 kts | 268° |
| 2026-05-04 06:30 | 41.78992 | 11.79549 | 11943 ft | 352 kts | 268° |
| 2026-05-04 06:30 | 41.78974 | 11.76255 | 12690 ft | 355 kts | 268° |
| 2026-05-04 06:31 | 41.78952 | 11.72919 | 13348 ft | 361 kts | 268° |
| 2026-05-04 06:31 | 41.78931 | 11.69530 | 13985 ft | 366 kts | 268° |
| 2026-05-04 06:31 | 41.78906 | 11.66097 | 14620 ft | 369 kts | 268° |
| 2026-05-04 06:31 | 41.78883 | 11.62662 | 15355 ft | 367 kts | 268° |
| 2026-05-04 06:32 | 41.78864 | 11.59218 | 16013 ft | 371 kts | 268° |
| 2026-05-04 06:33 | 41.88809 | 11.39989 | 19757 ft | 399 kts | 310° |
| 2026-05-04 06:34 | 41.90658 | 11.37276 | 20298 ft | 400 kts | 309° |
| 2026-05-04 06:34 | 41.92503 | 11.34477 | 20824 ft | 401 kts | 309° |
| 2026-05-04 06:34 | 41.94348 | 11.31660 | 21331 ft | 402 kts | 309° |
| 2026-05-04 06:34 | 41.96196 | 11.28813 | 21713 ft | 408 kts | 309° |
| 2026-05-04 06:35 | 41.98060 | 11.25919 | 22273 ft | 411 kts | 309° |
| 2026-05-04 06:36 | 42.11368 | 11.05268 | 25408 ft | 425 kts | 309° |
| 2026-05-04 06:37 | 42.13308 | 11.02240 | 25827 ft | 427 kts | 309° |
| 2026-05-04 06:37 | 42.15256 | 10.99209 | 26227 ft | 429 kts | 309° |
| 2026-05-04 06:37 | 42.17216 | 10.96166 | 26615 ft | 431 kts | 309° |
| 2026-05-04 06:37 | 42.19187 | 10.93110 | 26980 ft | 433 kts | 309° |
| 2026-05-04 06:38 | 42.21173 | 10.90035 | 27334 ft | 435 kts | 309° |
| 2026-05-04 06:38 | 42.23172 | 10.86941 | 27682 ft | 438 kts | 309° |
| 2026-05-04 06:40 | 42.41105 | 10.71692 | 30524 ft | 451 kts | 338° |
| 2026-05-04 06:40 | 42.44065 | 10.70323 | 30992 ft | 448 kts | 338° |
| 2026-05-04 06:40 | 42.46995 | 10.68935 | 31450 ft | 445 kts | 337° |
| 2026-05-04 06:40 | 42.49907 | 10.67518 | 31880 ft | 444 kts | 337° |
| 2026-05-04 06:41 | 42.52804 | 10.66081 | 32280 ft | 442 kts | 336° |
| 2026-05-04 06:41 | 42.55681 | 10.64639 | 32690 ft | 440 kts | 336° |
| 2026-05-04 06:41 | 42.58554 | 10.63196 | 33063 ft | 439 kts | 336° |
| 2026-05-04 06:41 | 42.61381 | 10.61776 | 33447 ft | 438 kts | 336° |
| 2026-05-04 06:42 | 42.64233 | 10.60347 | 33842 ft | 436 kts | 336° |
| 2026-05-04 06:42 | 42.67070 | 10.58928 | 34200 ft | 435 kts | 336° |
| 2026-05-04 06:42 | 42.69910 | 10.57507 | 34484 ft | 434 kts | 336° |
| 2026-05-04 06:44 | 42.89586 | 10.47616 | 36099 ft | 432 kts | 335° |
| 2026-05-04 06:44 | 42.95162 | 10.44810 | 36126 ft | 428 kts | 336° |
| 2026-05-04 06:45 | 43.00761 | 10.41995 | 36134 ft | 424 kts | 335° |
| 2026-05-04 06:45 | 43.06252 | 10.39223 | 36137 ft | 424 kts | 336° |
| 2026-05-04 06:46 | 43.11800 | 10.36416 | 36141 ft | 426 kts | 336° |
| 2026-05-04 06:46 | 43.17339 | 10.33531 | 36138 ft | 424 kts | 328° |
| 2026-05-04 06:48 | 43.35687 | 10.13787 | 36131 ft | 421 kts | 318° |
| 2026-05-04 06:50 | 43.53870 | 9.94070 | 36126 ft | 419 kts | 317° |
| 2026-05-04 06:51 | 43.58405 | 9.89088 | 36127 ft | 420 kts | 317° |
| 2026-05-04 06:51 | 43.62983 | 9.84064 | 36128 ft | 420 kts | 318° |
| 2026-05-04 06:52 | 43.67563 | 9.79046 | 36126 ft | 421 kts | 318° |
| 2026-05-04 06:52 | 43.72150 | 9.74006 | 36127 ft | 421 kts | 317° |
| 2026-05-04 06:53 | 43.76623 | 9.69084 | 36129 ft | 422 kts | 317° |
| 2026-05-04 06:53 | 43.81139 | 9.64104 | 36122 ft | 421 kts | 317° |
| 2026-05-04 06:54 | 43.85709 | 9.59049 | 36119 ft | 420 kts | 317° |
| 2026-05-04 06:54 | 43.90256 | 9.53980 | 36121 ft | 419 kts | 317° |
| 2026-05-04 06:55 | 43.94780 | 9.48944 | 36128 ft | 420 kts | 317° |
| 2026-05-04 06:55 | 43.99347 | 9.43864 | 36131 ft | 421 kts | 317° |
| 2026-05-04 06:57 | 44.17593 | 9.23481 | 36128 ft | 422 kts | 317° |
| 2026-05-04 06:58 | 44.22152 | 9.18329 | 36129 ft | 422 kts | 317° |
| 2026-05-04 06:58 | 44.26706 | 9.13185 | 36124 ft | 421 kts | 317° |
| 2026-05-04 06:59 | 44.31252 | 9.08055 | 36129 ft | 419 kts | 317° |
| 2026-05-04 06:59 | 44.35781 | 9.02941 | 36125 ft | 419 kts | 317° |
| 2026-05-04 07:01 | 44.53914 | 8.82328 | 36126 ft | 421 kts | 317° |
| 2026-05-04 07:02 | 44.58446 | 8.77135 | 36122 ft | 420 kts | 317° |
| 2026-05-04 07:02 | 44.62961 | 8.71963 | 36120 ft | 419 kts | 317° |
| 2026-05-04 07:03 | 44.67483 | 8.66787 | 36118 ft | 420 kts | 317° |
| 2026-05-04 07:03 | 44.72013 | 8.61583 | 36113 ft | 421 kts | 317° |
| 2026-05-04 07:04 | 44.76544 | 8.56372 | 36109 ft | 422 kts | 317° |
| 2026-05-04 07:04 | 44.81101 | 8.51123 | 36100 ft | 423 kts | 317° |
| 2026-05-04 07:05 | 44.85647 | 8.45847 | 36107 ft | 423 kts | 317° |
| 2026-05-04 07:05 | 44.90183 | 8.40570 | 36109 ft | 422 kts | 317° |
| 2026-05-04 07:06 | 44.96953 | 8.32707 | 36106 ft | 421 kts | 317° |
| 2026-05-04 07:07 | 45.01477 | 8.27437 | 36107 ft | 422 kts | 317° |
| 2026-05-04 07:09 | 45.19090 | 8.06808 | 36109 ft | 423 kts | 316° |
| 2026-05-04 07:09 | 45.23616 | 8.01468 | 36116 ft | 423 kts | 316° |
| 2026-05-04 07:10 | 45.28135 | 7.96140 | 36120 ft | 422 kts | 316° |
| 2026-05-04 07:12 | 45.46274 | 7.74662 | 36119 ft | 426 kts | 316° |
| 2026-05-04 07:12 | 45.50806 | 7.69229 | 36122 ft | 425 kts | 316° |
| 2026-05-04 07:13 | 45.55333 | 7.63806 | 36130 ft | 424 kts | 316° |
| 2026-05-04 07:13 | 45.59820 | 7.58435 | 36120 ft | 423 kts | 316° |
| 2026-05-04 07:14 | 45.71125 | 7.44866 | 36129 ft | 426 kts | 316° |
| 2026-05-04 07:15 | 45.75671 | 7.39392 | 36132 ft | 427 kts | 316° |
| 2026-05-04 07:15 | 45.80254 | 7.34002 | 36141 ft | 427 kts | 318° |
| 2026-05-04 07:16 | 45.85046 | 7.28979 | 36130 ft | 426 kts | 320° |
| 2026-05-04 07:16 | 45.89903 | 7.24097 | 36112 ft | 426 kts | 320° |
| 2026-05-04 07:17 | 45.94760 | 7.19216 | 36096 ft | 426 kts | 320° |
| 2026-05-04 07:17 | 45.99609 | 7.14277 | 36050 ft | 427 kts | 320° |
| 2026-05-04 07:18 | 46.04460 | 7.09285 | 36038 ft | 429 kts | 319° |
| 2026-05-04 07:18 | 46.09312 | 7.04280 | 36032 ft | 430 kts | 319° |
| 2026-05-04 07:19 | 46.14147 | 6.99317 | 36036 ft | 429 kts | 319° |
| 2026-05-04 07:19 | 46.19006 | 6.94314 | 36030 ft | 428 kts | 319° |
| 2026-05-04 07:20 | 46.23854 | 6.89306 | 36032 ft | 429 kts | 319° |
| 2026-05-04 07:20 | 46.28713 | 6.84270 | 36034 ft | 431 kts | 319° |
| 2026-05-04 07:22 | 46.46767 | 6.64689 | 36033 ft | 423 kts | 308° |
| 2026-05-04 07:23 | 46.50777 | 6.58409 | 36035 ft | 425 kts | 307° |
| 2026-05-04 07:23 | 46.54809 | 6.52094 | 36043 ft | 427 kts | 308° |
| 2026-05-04 07:24 | 46.58883 | 6.45860 | 36035 ft | 426 kts | 308° |
| 2026-05-04 07:24 | 46.63024 | 6.39599 | 36040 ft | 431 kts | 309° |
| 2026-05-04 07:26 | 46.79374 | 6.14623 | 36042 ft | 425 kts | 308° |
| 2026-05-04 07:27 | 46.83446 | 6.08351 | 36048 ft | 428 kts | 308° |
| 2026-05-04 07:27 | 46.87548 | 6.02005 | 36047 ft | 429 kts | 308° |
| 2026-05-04 07:28 | 46.91667 | 5.95684 | 36040 ft | 428 kts | 308° |
| 2026-05-04 07:28 | 46.95902 | 5.89559 | 36038 ft | 434 kts | 321° |
| 2026-05-04 07:29 | 47.01219 | 5.85225 | 36050 ft | 439 kts | 328° |
| 2026-05-04 07:29 | 47.06692 | 5.81181 | 36042 ft | 441 kts | 328° |
| 2026-05-04 07:30 | 47.12138 | 5.77142 | 36036 ft | 441 kts | 328° |
| 2026-05-04 07:30 | 47.17581 | 5.72979 | 36035 ft | 441 kts | 327° |
| 2026-05-04 07:31 | 47.22995 | 5.68764 | 36031 ft | 440 kts | 327° |
| 2026-05-04 07:33 | 47.44719 | 5.51817 | 36024 ft | 443 kts | 327° |
| 2026-05-04 07:33 | 47.50171 | 5.47549 | 36028 ft | 443 kts | 327° |
| 2026-05-04 07:34 | 47.52708 | 5.45053 | 36033 ft | 433 kts | 310° |
| 2026-05-04 07:34 | 47.54676 | 5.41766 | 36047 ft | 425 kts | 301° |
| 2026-05-04 07:34 | 47.58123 | 5.34657 | 36021 ft | 425 kts | 299° |
| 2026-05-04 07:35 | 47.61529 | 5.27492 | 36020 ft | 426 kts | 300° |
| 2026-05-04 07:35 | 47.64999 | 5.20356 | 36017 ft | 427 kts | 301° |
| 2026-05-04 07:36 | 47.68520 | 5.13265 | 36012 ft | 427 kts | 301° |
| 2026-05-04 07:38 | 47.82555 | 4.84787 | 36001 ft | 426 kts | 300° |
| 2026-05-04 07:38 | 47.86027 | 4.77638 | 35998 ft | 426 kts | 300° |
| 2026-05-04 07:39 | 47.89510 | 4.70484 | 35999 ft | 427 kts | 300° |
| 2026-05-04 07:39 | 47.93002 | 4.63308 | 35996 ft | 428 kts | 300° |
| 2026-05-04 07:40 | 47.96502 | 4.56106 | 35994 ft | 429 kts | 300° |
| 2026-05-04 07:40 | 47.99727 | 4.49458 | 35991 ft | 428 kts | 300° |
| 2026-05-04 07:41 | 48.03200 | 4.42242 | 35993 ft | 427 kts | 299° |
| 2026-05-04 07:41 | 48.06591 | 4.34962 | 35990 ft | 426 kts | 298° |
| 2026-05-04 07:42 | 48.10022 | 4.27716 | 36003 ft | 427 kts | 299° |
| 2026-05-04 07:42 | 48.13504 | 4.20484 | 36001 ft | 428 kts | 300° |
| 2026-05-04 07:43 | 48.17000 | 4.13247 | 36011 ft | 429 kts | 300° |
| 2026-05-04 07:43 | 48.20493 | 4.05996 | 36024 ft | 430 kts | 299° |
| 2026-05-04 07:44 | 48.23989 | 3.98710 | 36025 ft | 431 kts | 299° |
| 2026-05-04 07:44 | 48.27810 | 3.91722 | 36029 ft | 436 kts | 307° |
| 2026-05-04 07:45 | 48.32037 | 3.85179 | 36027 ft | 437 kts | 308° |
| 2026-05-04 07:45 | 48.36286 | 3.78643 | 36012 ft | 435 kts | 308° |
| 2026-05-04 07:46 | 48.40480 | 3.72072 | 36002 ft | 434 kts | 307° |
| 2026-05-04 07:46 | 48.44634 | 3.65477 | 35992 ft | 434 kts | 307° |
| 2026-05-04 07:47 | 48.48763 | 3.58897 | 35983 ft | 435 kts | 307° |
| 2026-05-04 07:49 | 48.65426 | 3.32170 | 35983 ft | 437 kts | 307° |
| 2026-05-04 07:49 | 48.69586 | 3.25471 | 35976 ft | 437 kts | 307° |
| 2026-05-04 07:50 | 48.73433 | 3.19267 | 35982 ft | 437 kts | 307° |
| 2026-05-04 07:50 | 48.77402 | 3.12854 | 35978 ft | 437 kts | 307° |
| 2026-05-04 07:51 | 48.81530 | 3.06171 | 35974 ft | 437 kts | 307° |
| 2026-05-04 07:51 | 48.85977 | 2.99840 | 35992 ft | 447 kts | 322° |
| 2026-05-04 07:52 | 48.91185 | 2.95269 | 35990 ft | 451 kts | 326° |
| 2026-05-04 07:52 | 48.96697 | 2.90668 | 35984 ft | 452 kts | 326° |
| 2026-05-04 07:54 | 49.18309 | 2.71711 | 35982 ft | 449 kts | 325° |
| 2026-05-04 07:55 | 49.23708 | 2.66920 | 35979 ft | 448 kts | 325° |
| 2026-05-04 07:55 | 49.28986 | 2.62214 | 35982 ft | 449 kts | 325° |
| 2026-05-04 07:56 | 49.34355 | 2.57420 | 35979 ft | 450 kts | 325° |
| 2026-05-04 07:56 | 49.39765 | 2.52596 | 35979 ft | 450 kts | 325° |
| 2026-05-04 07:57 | 49.45190 | 2.47750 | 35984 ft | 451 kts | 325° |
| 2026-05-04 07:57 | 49.50608 | 2.42906 | 35984 ft | 451 kts | 327° |
| 2026-05-04 07:58 | 49.53499 | 2.40987 | 35992 ft | 456 kts | 338° |
| 2026-05-04 07:58 | 49.56541 | 2.39548 | 35989 ft | 457 kts | 341° |
| 2026-05-04 07:58 | 49.62660 | 2.36950 | 35981 ft | 456 kts | 341° |
| 2026-05-04 07:59 | 49.68767 | 2.34317 | 35987 ft | 456 kts | 340° |
| 2026-05-04 07:59 | 49.74854 | 2.31568 | 35980 ft | 456 kts | 340° |
| 2026-05-04 08:00 | 49.80937 | 2.28761 | 35988 ft | 457 kts | 340° |
| 2026-05-04 08:02 | 50.04957 | 2.17664 | 35992 ft | 457 kts | 340° |
| 2026-05-04 08:02 | 50.11058 | 2.14840 | 35996 ft | 457 kts | 340° |
| 2026-05-04 08:03 | 50.17106 | 2.12031 | 35994 ft | 455 kts | 340° |
| 2026-05-04 08:03 | 50.23169 | 2.09210 | 35994 ft | 454 kts | 340° |
| 2026-05-04 08:04 | 50.29225 | 2.06386 | 35995 ft | 454 kts | 340° |
| 2026-05-04 08:04 | 50.35270 | 2.03553 | 35992 ft | 453 kts | 338° |
| 2026-05-04 08:05 | 50.38094 | 2.01498 | 36001 ft | 444 kts | 320° |
| 2026-05-04 08:05 | 50.40510 | 1.98537 | 36020 ft | 440 kts | 314° |
| 2026-05-04 08:05 | 50.45072 | 1.92094 | 36004 ft | 442 kts | 313° |
| 2026-05-04 08:06 | 50.49633 | 1.85615 | 35994 ft | 442 kts | 314° |
| 2026-05-04 08:06 | 50.53459 | 1.80312 | 35994 ft | 440 kts | 314° |
| 2026-05-04 08:08 | 50.71876 | 1.55036 | 35996 ft | 440 kts | 314° |
| 2026-05-04 08:11 | 50.92515 | 1.26279 | 35994 ft | 437 kts | 314° |
| 2026-05-04 08:11 | 50.99337 | 1.16711 | 35994 ft | 437 kts | 314° |
| 2026-05-04 08:12 | 51.03883 | 1.10319 | 35996 ft | 436 kts | 314° |
| 2026-05-04 08:12 | 51.06014 | 1.06901 | 35996 ft | 430 kts | 301° |
| 2026-05-04 08:12 | 51.07420 | 1.02796 | 36020 ft | 422 kts | 287° |
| 2026-05-04 08:13 | 51.09323 | 0.93982 | 36005 ft | 421 kts | 284° |
| 2026-05-04 08:13 | 51.11112 | 0.85082 | 35996 ft | 423 kts | 284° |
| 2026-05-04 08:14 | 51.12961 | 0.76189 | 35997 ft | 423 kts | 285° |
| 2026-05-04 08:16 | 51.20490 | 0.41454 | 35990 ft | 421 kts | 285° |
| 2026-05-04 08:16 | 51.22198 | 0.33389 | 35992 ft | 423 kts | 285° |
| 2026-05-04 08:17 | 51.24077 | 0.24487 | 35994 ft | 425 kts | 285° |
| 2026-05-04 08:17 | 51.25932 | 0.15521 | 36021 ft | 426 kts | 285° |
| 2026-05-04 08:19 | 51.33383 | -0.20366 | 36018 ft | 425 kts | 286° |
| 2026-05-04 08:20 | 51.35211 | -0.29177 | 36015 ft | 426 kts | 286° |
| 2026-05-04 08:20 | 51.37084 | -0.38238 | 36020 ft | 427 kts | 286° |
| 2026-05-04 08:21 | 51.38911 | -0.47297 | 36023 ft | 428 kts | 285° |
| 2026-05-04 08:21 | 51.40728 | -0.56395 | 36023 ft | 429 kts | 286° |
| 2026-05-04 08:22 | 51.42554 | -0.65491 | 36023 ft | 430 kts | 286° |
| 2026-05-04 08:24 | 51.49872 | -1.01907 | 36015 ft | 429 kts | 286° |
| 2026-05-04 08:24 | 51.51673 | -1.11035 | 36022 ft | 429 kts | 286° |
| 2026-05-04 08:25 | 51.53805 | -1.19990 | 36021 ft | 432 kts | 296° |
| 2026-05-04 08:25 | 51.56768 | -1.28410 | 36022 ft | 434 kts | 299° |
| 2026-05-04 08:27 | 51.66531 | -1.63714 | 36018 ft | 432 kts | 289° |
| 2026-05-04 08:28 | 51.68635 | -1.72699 | 36020 ft | 432 kts | 289° |
| 2026-05-04 08:28 | 51.70786 | -1.81751 | 36015 ft | 432 kts | 290° |
| 2026-05-04 08:29 | 51.72516 | -1.90357 | 36020 ft | 432 kts | 282° |
| 2026-05-04 08:31 | 51.77921 | -2.28303 | 36018 ft | 435 kts | 282° |
| 2026-05-04 08:33 | 51.83381 | -2.66366 | 36036 ft | 436 kts | 281° |
| 2026-05-04 08:35 | 51.88503 | -3.04891 | 36040 ft | 439 kts | 282° |
| 2026-05-04 08:35 | 51.89796 | -3.14568 | 36036 ft | 441 kts | 282° |
| 2026-05-04 08:37 | 51.94196 | -3.48709 | 36018 ft | 444 kts | 282° |
| 2026-05-04 08:38 | 51.95485 | -3.58518 | 36019 ft | 445 kts | 282° |
| 2026-05-04 08:38 | 51.96700 | -3.68299 | 36017 ft | 445 kts | 281° |
| 2026-05-04 08:40 | 52.01559 | -4.07456 | 36012 ft | 443 kts | 282° |
| 2026-05-04 08:41 | 52.02777 | -4.17250 | 36009 ft | 442 kts | 282° |
| 2026-05-04 08:41 | 52.03979 | -4.27018 | 36014 ft | 442 kts | 282° |
| 2026-05-04 08:42 | 52.05124 | -4.36770 | 36009 ft | 443 kts | 281° |
| 2026-05-04 08:42 | 52.06276 | -4.46619 | 36012 ft | 444 kts | 282° |
| 2026-05-04 08:43 | 52.07439 | -4.56477 | 36013 ft | 445 kts | 282° |
| 2026-05-04 08:43 | 52.08613 | -4.66356 | 36017 ft | 445 kts | 282° |
| 2026-05-04 08:44 | 52.09784 | -4.76251 | 36013 ft | 446 kts | 282° |
| 2026-05-04 08:46 | 52.15398 | -5.15379 | 34500 ft | 442 kts | 312° |
| 2026-05-04 08:46 | 52.17579 | -5.18845 | 33781 ft | 437 kts | 329° |
| 2026-05-04 08:46 | 52.20178 | -5.21331 | 32921 ft | 432 kts | 337° |
| 2026-05-04 08:46 | 52.22866 | -5.23481 | 32142 ft | 429 kts | 339° |
| 2026-05-04 08:47 | 52.25560 | -5.25561 | 31427 ft | 425 kts | 340° |
| 2026-05-04 08:47 | 52.28223 | -5.27609 | 30760 ft | 421 kts | 340° |
| 2026-05-04 08:47 | 52.30852 | -5.29655 | 30116 ft | 416 kts | 340° |
| 2026-05-04 08:47 | 52.33443 | -5.31709 | 29400 ft | 411 kts | 340° |
| 2026-05-04 08:48 | 52.35993 | -5.33765 | 28766 ft | 405 kts | 339° |
| 2026-05-04 08:48 | 52.38498 | -5.35817 | 28154 ft | 400 kts | 339° |
| 2026-05-04 08:48 | 52.40934 | -5.37830 | 27560 ft | 395 kts | 339° |
| 2026-05-04 08:48 | 52.43388 | -5.39866 | 26966 ft | 399 kts | 338° |
| 2026-05-04 08:49 | 52.45905 | -5.41957 | 26399 ft | 409 kts | 338° |
| 2026-05-04 08:50 | 52.61094 | -5.53076 | 22957 ft | 379 kts | 347° |
| 2026-05-04 08:50 | 52.63597 | -5.54283 | 22501 ft | 371 kts | 347° |
| 2026-05-04 08:51 | 52.66052 | -5.55468 | 22099 ft | 364 kts | 347° |
| 2026-05-04 08:51 | 52.68467 | -5.56650 | 21685 ft | 363 kts | 346° |
| 2026-05-04 08:51 | 52.70930 | -5.57869 | 21294 ft | 378 kts | 346° |
| 2026-05-04 08:51 | 52.72604 | -5.58709 | 21030 ft | 380 kts | 346° |
| 2026-05-04 08:52 | 52.75130 | -5.60000 | 20604 ft | 380 kts | 345° |
| 2026-05-04 08:52 | 52.77638 | -5.61304 | 20158 ft | 376 kts | 345° |
| 2026-05-04 08:52 | 52.80923 | -5.63026 | 19570 ft | 372 kts | 345° |
| 2026-05-04 08:52 | 52.83379 | -5.64314 | 19134 ft | 369 kts | 345° |
| 2026-05-04 08:53 | 52.85814 | -5.65589 | 18695 ft | 366 kts | 345° |
| 2026-05-04 08:54 | 53.01698 | -5.73882 | 15887 ft | 351 kts | 344° |
| 2026-05-04 08:55 | 53.03992 | -5.75083 | 15498 ft | 350 kts | 344° |
| 2026-05-04 08:55 | 53.06299 | -5.76290 | 15101 ft | 346 kts | 344° |
| 2026-05-04 08:55 | 53.08593 | -5.77491 | 14685 ft | 345 kts | 343° |
| 2026-05-04 08:55 | 53.10878 | -5.78688 | 14276 ft | 343 kts | 343° |
| 2026-05-04 08:57 | 53.19221 | -6.01338 | 12266 ft | 337 kts | 294° |
| 2026-05-04 09:01 | 53.31383 | -6.49012 | 9481 ft | 276 kts | 295° |
| 2026-05-04 09:01 | 53.32130 | -6.51941 | 8865 ft | 270 kts | 295° |
| 2026-05-04 09:01 | 53.32853 | -6.54788 | 8338 ft | 262 kts | 295° |
| 2026-05-04 09:01 | 53.33528 | -6.57485 | 7919 ft | 246 kts | 294° |
| 2026-05-04 09:02 | 53.34165 | -6.60065 | 7661 ft | 234 kts | 295° |
| 2026-05-04 09:02 | 53.34784 | -6.62572 | 7267 ft | 231 kts | 295° |
| 2026-05-04 09:02 | 53.35409 | -6.65063 | 6587 ft | 234 kts | 295° |
| 2026-05-04 09:02 | 53.36152 | -6.67486 | 5844 ft | 234 kts | 313° |
| 2026-05-04 09:03 | 53.37437 | -6.68930 | 5370 ft | 220 kts | 348° |
| 2026-05-04 09:03 | 53.38936 | -6.69104 | 4907 ft | 215 kts | 2° |
| 2026-05-04 09:03 | 53.40426 | -6.69015 | 4459 ft | 213 kts | 4° |
| 2026-05-04 09:03 | 53.41901 | -6.68868 | 4252 ft | 209 kts | 6° |
| 2026-05-04 09:04 | 53.43321 | -6.68651 | 4151 ft | 201 kts | 7° |
| 2026-05-04 09:04 | 53.44610 | -6.68027 | 4116 ft | 189 kts | 36° |
| 2026-05-04 09:04 | 53.45273 | -6.66268 | 4104 ft | 182 kts | 79° |
| 2026-05-04 09:04 | 53.45310 | -6.64072 | 4124 ft | 195 kts | 88° |
| 2026-05-04 09:05 | 53.45317 | -6.61820 | 4097 ft | 189 kts | 86° |
| 2026-05-04 09:05 | 53.45342 | -6.59661 | 4059 ft | 183 kts | 87° |
| 2026-05-04 09:05 | 53.45307 | -6.57488 | 3766 ft | 189 kts | 92° |
| 2026-05-04 09:05 | 53.45198 | -6.55270 | 3528 ft | 191 kts | 91° |
| 2026-05-04 09:06 | 53.45091 | -6.53041 | 3266 ft | 193 kts | 92° |
| 2026-05-04 09:07 | 53.44340 | -6.39433 | 1596 ft | 128 kts | 91° |
| 2026-05-04 09:08 | 53.44266 | -6.37984 | 1436 ft | 130 kts | 91° |
| 2026-05-04 09:08 | 53.44171 | -6.36470 | 1262 ft | 130 kts | 92° |
| 2026-05-04 09:08 | 53.44088 | -6.34934 | 1098 ft | 131 kts | 90° |
| 2026-05-04 09:08 | 53.44014 | -6.33410 | 911 ft | 136 kts | 92° |
| 2026-05-04 09:09 | 53.43924 | -6.31845 | 698 ft | 132 kts | 91° |
| 2026-05-04 09:09 | 53.43839 | -6.30344 | 503 ft | 128 kts | 90° |
| 2026-05-04 09:09 | 53.43758 | -6.28883 | 331 ft | 124 kts | 91° |
| 2026-05-04 09:09 | 53.43682 | -6.27437 | 222 ft | 127 kts | 92° |
| 2026-05-04 09:10 | 53.43615 | -6.26082 | 218 ft | 102 kts | 95° |
| 2026-05-04 09:10 | 53.43551 | -6.24981 | 213 ft | 78 kts | 96° |
| 2026-05-04 09:10 | 53.43518 | -6.24419 | 212 ft | 31 kts | 95° |
| 2026-05-04 09:10 | 53.43497 | -6.24062 | 214 ft | 31 kts | 96° |
| 2026-05-04 09:11 | 53.43451 | -6.23852 | 213 ft | 8 kts | 154° |
| 2026-05-04 09:11 | 53.43383 | -6.23853 | 214 ft | 13 kts | 186° |
| 2026-05-04 09:11 | 53.43321 | -6.23916 | 217 ft | 10 kts | 255° |
| 2026-05-04 09:11 | 53.43323 | -6.24041 | 211 ft | 12 kts | 274° |
| 2026-05-04 09:12 | 53.43330 | -6.24190 | 214 ft | 14 kts | 275° |
| 2026-05-04 09:12 | 53.43339 | -6.24362 | 212 ft | 16 kts | 275° |
| 2026-05-04 09:14 | 53.43302 | -6.25611 | 219 ft | 12 kts | 156° |
| 2026-05-04 09:14 | 53.43218 | -6.25550 | 217 ft | 14 kts | 156° |
| 2026-05-04 09:14 | 53.43122 | -6.25480 | 217 ft | 16 kts | 157° |
| 2026-05-04 09:14 | 53.43013 | -6.25403 | 212 ft | 18 kts | 156° |
| 2026-05-04 09:15 | 53.42894 | -6.25315 | 218 ft | 17 kts | 156° |
| 2026-05-04 09:15 | 53.42862 | -6.25291 | 217 ft | 0 kts | 156° |
| 2026-05-04 09:15 | 53.42818 | -6.25254 | 217 ft | 8 kts | 143° |
| 2026-05-04 09:17 | 53.42568 | -6.24679 | 217 ft | 0 kts | 71° |